createdAt,value
2017-10-02T00:01:02.726Z,13.90
2017-10-02T00:03:30.204Z,13.90
2017-10-02T00:05:57.646Z,13.90
2017-10-02T00:08:25.111Z,13.90
2017-10-02T00:10:52.595Z,14.00
2017-10-02T00:13:20.038Z,14.00
2017-10-02T00:15:47.496Z,14.00
2017-10-02T00:18:14.953Z,14.00
2017-10-02T00:20:42.381Z,14.00
2017-10-02T00:23:10.491Z,14.00
2017-10-02T00:25:39.863Z,14.00
2017-10-02T00:28:07.338Z,14.00
2017-10-02T00:30:34.887Z,14.00
2017-10-02T00:33:02.395Z,14.00
2017-10-02T00:35:29.949Z,14.00
2017-10-02T00:37:57.384Z,14.00
2017-10-02T00:40:24.820Z,14.00
2017-10-02T00:42:52.276Z,14.00
2017-10-02T00:45:19.805Z,14.00
2017-10-02T00:47:47.248Z,14.00
2017-10-02T00:50:14.699Z,14.00
2017-10-02T00:52:42.127Z,14.00
2017-10-02T00:55:10.018Z,14.00
2017-10-02T00:57:37.477Z,14.00
2017-10-02T01:00:06.709Z,14.00
2017-10-02T01:02:34.187Z,14.00
2017-10-02T01:05:01.625Z,14.00
2017-10-02T01:07:29.048Z,14.00
2017-10-02T01:09:56.879Z,14.00
2017-10-02T01:12:24.325Z,14.00
2017-10-02T01:14:51.874Z,14.00
2017-10-02T01:17:19.340Z,14.00
2017-10-02T01:19:46.914Z,14.00
2017-10-02T01:22:14.370Z,13.90
2017-10-02T01:24:42.197Z,13.90
2017-10-02T01:27:09.667Z,13.90
2017-10-02T01:29:37.123Z,13.90
2017-10-02T01:32:04.677Z,13.90
2017-10-02T01:34:32.133Z,13.90
2017-10-02T01:36:59.604Z,13.90
2017-10-02T01:39:27.035Z,13.90
2017-10-02T01:41:54.799Z,13.90
2017-10-02T01:44:22.237Z,13.90
2017-10-02T01:46:49.682Z,13.90
2017-10-02T01:49:17.550Z,13.90
2017-10-02T01:51:45.000Z,13.80
2017-10-02T01:54:12.412Z,13.80
2017-10-02T01:56:39.905Z,13.80
2017-10-02T01:59:07.449Z,13.80
2017-10-02T02:01:34.895Z,13.80
2017-10-02T02:04:02.384Z,13.80
2017-10-02T02:06:29.834Z,13.90
2017-10-02T02:08:57.423Z,13.90
2017-10-02T02:11:24.979Z,13.90
2017-10-02T02:13:52.442Z,13.90
2017-10-02T02:16:19.892Z,13.90
2017-10-02T02:18:47.379Z,13.90
2017-10-02T02:21:14.854Z,13.90
2017-10-02T02:23:42.291Z,13.90
2017-10-02T02:26:09.760Z,13.90
2017-10-02T02:28:37.207Z,13.90
2017-10-02T02:31:04.694Z,13.90
2017-10-02T02:33:32.157Z,13.90
2017-10-02T02:35:59.633Z,13.90
2017-10-02T02:38:27.086Z,13.90
2017-10-02T02:40:56.303Z,13.90
2017-10-02T02:43:24.164Z,13.90
2017-10-02T02:45:51.568Z,13.90
2017-10-02T02:48:19.293Z,13.90
2017-10-02T02:50:46.749Z,13.90
2017-10-02T02:53:14.203Z,13.90
2017-10-02T02:55:41.764Z,13.80
2017-10-02T02:58:09.279Z,13.80
2017-10-02T03:00:36.750Z,13.80
2017-10-02T03:03:04.235Z,13.80
2017-10-02T03:05:31.688Z,13.80
2017-10-02T03:07:59.685Z,13.80
2017-10-02T03:10:28.177Z,13.80
2017-10-02T03:12:55.728Z,13.80
2017-10-02T03:15:23.207Z,13.80
2017-10-02T03:17:50.644Z,13.80
2017-10-02T03:20:18.051Z,13.80
2017-10-02T03:22:45.946Z,13.80
2017-10-02T03:25:13.395Z,13.80
2017-10-02T03:27:40.903Z,13.80
2017-10-02T03:30:08.404Z,13.80
2017-10-02T03:32:36.225Z,13.80
2017-10-02T03:35:03.699Z,13.80
2017-10-02T03:37:31.177Z,13.80
2017-10-02T03:39:58.607Z,13.80
2017-10-02T03:42:26.065Z,13.80
2017-10-02T03:44:54.372Z,13.70
2017-10-02T03:47:21.915Z,13.70
2017-10-02T03:49:49.385Z,13.70
2017-10-02T03:52:16.854Z,13.70
2017-10-02T03:54:44.324Z,13.70
2017-10-02T03:57:11.817Z,13.70
2017-10-02T03:59:39.275Z,13.60
2017-10-02T04:02:07.286Z,13.60
2017-10-02T04:04:34.738Z,13.60
2017-10-02T04:07:02.230Z,13.60
2017-10-02T04:09:29.654Z,13.60
2017-10-02T04:11:57.159Z,13.60
2017-10-02T04:14:24.614Z,13.60
2017-10-02T04:16:52.064Z,13.60
2017-10-02T04:19:19.650Z,13.60
2017-10-02T04:21:47.130Z,13.60
2017-10-02T04:24:14.575Z,13.60
2017-10-02T04:26:42.141Z,13.60
2017-10-02T04:29:09.607Z,13.60
2017-10-02T04:31:37.076Z,13.60
2017-10-02T04:34:04.507Z,13.60
2017-10-02T04:36:31.999Z,13.70
2017-10-02T04:38:59.628Z,13.70
2017-10-02T04:41:27.083Z,13.70
2017-10-02T04:43:54.518Z,13.70
2017-10-02T04:46:22.361Z,13.70
2017-10-02T04:48:49.906Z,13.70
2017-10-02T04:51:17.395Z,13.70
2017-10-02T04:53:44.807Z,13.70
2017-10-02T04:56:12.283Z,13.70
2017-10-02T04:58:39.752Z,13.80
2017-10-02T05:01:07.196Z,13.80
2017-10-02T05:03:34.653Z,13.80
2017-10-02T05:06:02.148Z,13.80
2017-10-02T05:08:29.588Z,13.80
2017-10-02T05:10:57.031Z,13.90
2017-10-02T05:13:24.511Z,13.80
2017-10-02T05:15:52.138Z,13.90
2017-10-02T05:20:54.189Z,13.80
2017-10-02T05:23:21.641Z,13.90
2017-10-02T05:25:49.407Z,13.90
2017-10-02T05:28:16.865Z,13.90
2017-10-02T05:30:44.322Z,13.90
2017-10-02T05:33:11.814Z,13.90
2017-10-02T05:35:39.234Z,13.90
2017-10-02T05:38:06.739Z,13.90
2017-10-02T05:40:34.214Z,13.90
2017-10-02T05:43:02.052Z,13.90
2017-10-02T05:45:29.532Z,13.90
2017-10-02T05:47:57.017Z,14.00
2017-10-02T05:50:24.866Z,14.00
2017-10-02T05:52:52.359Z,14.00
2017-10-02T05:55:19.809Z,14.00
2017-10-02T05:57:47.753Z,14.00
2017-10-02T06:00:15.228Z,14.00
2017-10-02T06:02:45.603Z,14.00
2017-10-02T06:05:13.103Z,14.00
2017-10-02T06:07:40.559Z,14.00
2017-10-02T06:10:08.021Z,14.00
2017-10-02T06:12:35.502Z,14.00
2017-10-02T06:15:02.999Z,14.00
2017-10-02T06:17:30.450Z,14.00
2017-10-02T06:19:58.328Z,14.00
2017-10-02T06:22:25.765Z,14.00
2017-10-02T06:24:53.314Z,14.00
2017-10-02T06:27:20.765Z,14.00
2017-10-02T06:29:48.324Z,14.00
2017-10-02T06:32:15.815Z,14.00
2017-10-02T06:34:43.290Z,14.00
2017-10-02T06:37:10.768Z,14.00
2017-10-02T06:39:38.287Z,14.00
2017-10-02T06:42:05.739Z,14.00
2017-10-02T06:44:33.164Z,14.00
2017-10-02T06:47:00.644Z,14.00
2017-10-02T06:49:28.093Z,14.00
2017-10-02T06:51:55.614Z,14.00
2017-10-02T06:54:23.035Z,14.00
2017-10-02T06:56:50.499Z,14.00
2017-10-02T06:59:18.017Z,14.00
2017-10-02T07:01:45.439Z,14.00
2017-10-02T07:04:12.906Z,14.00
2017-10-02T07:06:40.426Z,14.00
2017-10-02T07:09:07.938Z,14.00
2017-10-02T07:11:38.790Z,14.00
2017-10-02T07:14:06.287Z,14.00
2017-10-02T07:16:33.764Z,14.00
2017-10-02T07:19:01.229Z,14.10
2017-10-02T07:21:28.714Z,14.00
2017-10-02T07:23:56.155Z,14.10
2017-10-02T07:26:23.695Z,14.10
2017-10-02T07:28:51.311Z,14.10
2017-10-02T07:31:18.761Z,14.00
2017-10-02T07:33:46.566Z,14.00
2017-10-02T07:36:13.996Z,14.00
2017-10-02T07:38:41.539Z,14.00
2017-10-02T07:41:09.023Z,14.00
2017-10-02T07:43:36.470Z,14.00
2017-10-02T07:46:03.935Z,14.10
2017-10-02T07:48:32.032Z,14.10
2017-10-02T07:50:59.575Z,14.10
2017-10-02T07:53:27.019Z,14.10
2017-10-02T07:55:54.478Z,14.20
2017-10-02T07:58:22.052Z,14.10
2017-10-02T08:00:49.505Z,14.10
2017-10-02T08:03:16.966Z,14.10
2017-10-02T08:05:44.419Z,14.10
2017-10-02T08:08:11.881Z,14.10
2017-10-02T08:10:39.393Z,14.10
2017-10-02T08:13:06.869Z,14.10
2017-10-02T08:15:34.324Z,14.20
2017-10-02T08:18:01.814Z,14.20
2017-10-02T08:20:29.246Z,14.30
2017-10-02T08:22:56.752Z,14.30
2017-10-02T08:25:24.580Z,14.30
2017-10-02T08:27:52.075Z,14.30
2017-10-02T08:30:20.004Z,14.30
2017-10-02T08:32:47.469Z,14.30
2017-10-02T08:35:14.940Z,14.30
2017-10-02T08:37:42.446Z,14.30
2017-10-02T08:40:09.938Z,14.40
2017-10-02T08:42:37.404Z,14.30
2017-10-02T08:45:04.970Z,14.30
2017-10-02T08:47:32.531Z,14.40
2017-10-02T08:50:00.048Z,14.40
2017-10-02T08:52:28.021Z,14.40
2017-10-02T08:54:55.553Z,14.40
2017-10-02T08:57:23.174Z,14.50
2017-10-02T08:59:50.680Z,14.50
2017-10-02T09:02:18.244Z,14.50
2017-10-02T09:04:45.751Z,14.50
2017-10-02T09:07:13.644Z,14.60
2017-10-02T09:09:41.189Z,14.60
2017-10-02T09:12:09.057Z,14.70
2017-10-02T09:14:37.077Z,14.80
2017-10-02T09:17:04.751Z,14.80
2017-10-02T09:19:32.210Z,14.80
2017-10-02T09:21:59.687Z,14.90
2017-10-02T09:24:27.140Z,14.90
2017-10-02T09:26:54.626Z,15.00
2017-10-02T09:29:22.360Z,15.00
2017-10-02T09:31:49.944Z,15.00
2017-10-02T09:34:17.439Z,15.00
2017-10-02T09:36:44.965Z,15.00
2017-10-02T09:39:12.545Z,15.10
2017-10-02T09:41:39.959Z,15.10
2017-10-02T09:44:07.414Z,15.10
2017-10-02T09:46:36.620Z,15.10
2017-10-02T09:49:04.078Z,15.10
2017-10-02T09:51:31.503Z,15.10
2017-10-02T09:53:59.005Z,15.10
2017-10-02T09:56:26.445Z,15.20
2017-10-02T09:58:54.266Z,15.20
2017-10-02T10:01:21.786Z,15.20
2017-10-02T10:03:49.304Z,15.20
2017-10-02T10:06:16.856Z,15.30
2017-10-02T10:08:44.374Z,15.30
2017-10-02T10:11:12.280Z,15.30
2017-10-02T10:13:42.063Z,15.30
2017-10-02T10:16:10.154Z,15.40
2017-10-02T10:18:37.790Z,15.40
2017-10-02T10:21:05.286Z,15.40
2017-10-02T10:23:32.768Z,15.40
2017-10-02T10:26:00.247Z,15.50
2017-10-02T10:28:27.821Z,15.60
2017-10-02T10:30:55.250Z,15.70
2017-10-02T10:33:22.774Z,15.70
2017-10-02T10:35:52.151Z,15.80
2017-10-02T10:38:19.628Z,15.80
2017-10-02T10:40:47.679Z,15.90
2017-10-02T10:43:15.182Z,15.80
2017-10-02T10:45:43.123Z,15.90
2017-10-02T10:48:10.636Z,15.90
2017-10-02T10:50:38.116Z,15.90
2017-10-02T10:53:05.602Z,15.90
2017-10-02T10:55:33.071Z,16.00
2017-10-02T10:58:00.582Z,16.00
2017-10-02T11:00:28.093Z,16.00
2017-10-02T11:02:55.587Z,16.10
2017-10-02T11:05:23.536Z,16.10
2017-10-02T11:07:51.091Z,16.10
2017-10-02T11:10:18.650Z,16.10
2017-10-02T11:12:46.098Z,16.20
2017-10-02T11:15:13.638Z,16.20
2017-10-02T11:17:41.110Z,16.20
2017-10-02T11:20:08.597Z,16.20
2017-10-02T11:22:36.080Z,16.20
2017-10-02T11:25:03.566Z,16.20
2017-10-02T11:27:31.486Z,16.20
2017-10-02T11:29:58.959Z,16.20
2017-10-02T11:32:26.456Z,16.20
2017-10-02T11:34:54.683Z,16.20
2017-10-02T11:37:22.204Z,16.20
2017-10-02T11:39:50.135Z,16.30
2017-10-02T11:42:17.682Z,16.30
2017-10-02T11:44:45.231Z,16.30
2017-10-02T11:47:12.713Z,16.40
2017-10-02T11:49:40.258Z,16.40
2017-10-02T11:52:07.748Z,16.50
2017-10-02T11:54:35.468Z,16.50
2017-10-02T11:57:02.993Z,16.50
2017-10-02T11:59:30.481Z,16.60
2017-10-02T12:01:58.360Z,16.70
2017-10-02T12:04:26.257Z,16.80
2017-10-02T12:06:53.714Z,16.80
2017-10-02T12:09:21.110Z,16.80
2017-10-02T12:11:48.630Z,16.90
2017-10-02T12:14:16.092Z,17.00
2017-10-02T12:16:43.559Z,17.10
2017-10-02T12:19:11.335Z,17.10
2017-10-02T12:21:39.056Z,17.20
2017-10-02T12:24:06.647Z,17.20
2017-10-02T12:26:34.558Z,17.30
2017-10-02T12:29:02.020Z,17.30
2017-10-02T12:31:29.509Z,17.30
2017-10-02T12:33:56.946Z,17.30
2017-10-02T12:36:24.506Z,17.30
2017-10-02T12:38:52.018Z,17.20
2017-10-02T12:41:19.890Z,17.30
2017-10-02T12:43:47.715Z,17.30
2017-10-02T12:46:15.255Z,17.30
2017-10-02T12:48:42.834Z,17.20
2017-10-02T12:51:10.494Z,17.30
2017-10-02T12:53:39.545Z,17.20
2017-10-02T12:56:07.392Z,17.20
2017-10-02T12:58:34.849Z,17.10
2017-10-02T13:01:02.611Z,17.10
2017-10-02T13:03:30.274Z,17.10
2017-10-02T13:05:57.719Z,17.10
2017-10-02T13:08:25.174Z,17.10
2017-10-02T13:10:52.644Z,17.10
2017-10-02T13:13:20.056Z,17.10
2017-10-02T13:15:47.883Z,17.10
2017-10-02T13:18:15.347Z,17.10
2017-10-02T13:20:42.775Z,17.10
2017-10-02T13:23:10.267Z,17.10
2017-10-02T13:25:37.731Z,17.10
2017-10-02T13:28:05.215Z,17.10
2017-10-02T13:30:32.704Z,17.20
2017-10-02T13:33:00.610Z,17.20
2017-10-02T13:35:28.047Z,17.20
2017-10-02T13:37:55.917Z,17.20
2017-10-02T13:40:23.754Z,17.30
2017-10-02T13:42:51.197Z,17.30
2017-10-02T13:45:18.672Z,17.30
2017-10-02T13:47:46.166Z,17.30
2017-10-02T13:50:13.614Z,17.20
2017-10-02T13:52:41.071Z,17.20
2017-10-02T13:55:08.563Z,17.30
2017-10-02T13:57:36.804Z,17.30
2017-10-02T14:00:04.317Z,17.30
2017-10-02T14:02:31.860Z,17.20
2017-10-02T14:04:59.973Z,17.30
2017-10-02T14:07:27.376Z,17.30
2017-10-02T14:09:54.838Z,17.40
2017-10-02T14:12:22.270Z,17.40
2017-10-02T14:14:49.709Z,17.40
2017-10-02T14:17:17.625Z,17.50
2017-10-02T14:19:45.085Z,17.50
2017-10-02T14:22:12.622Z,17.50
2017-10-02T14:24:40.186Z,17.60
2017-10-02T14:27:07.674Z,17.60
2017-10-02T14:29:35.124Z,17.60
2017-10-02T14:32:02.590Z,17.60
2017-10-02T14:34:31.275Z,17.70
2017-10-02T14:36:58.748Z,17.70
2017-10-02T14:39:26.213Z,17.70
2017-10-02T14:41:53.874Z,17.70
2017-10-02T14:44:21.620Z,17.70
2017-10-02T14:46:49.053Z,17.70
2017-10-02T14:49:16.887Z,17.60
2017-10-02T14:51:44.448Z,17.60
2017-10-02T14:54:11.876Z,17.60
2017-10-02T14:56:39.454Z,17.60
2017-10-02T14:59:06.958Z,17.60
2017-10-02T15:01:35.269Z,17.70
2017-10-02T15:04:02.739Z,17.70
2017-10-02T15:06:30.477Z,17.80
2017-10-02T15:08:57.980Z,17.80
2017-10-02T15:11:25.619Z,17.90
2017-10-02T15:13:53.483Z,17.90
2017-10-02T15:16:21.517Z,17.80
2017-10-02T15:18:49.016Z,17.80
2017-10-02T15:21:17.092Z,17.80
2017-10-02T15:23:44.541Z,17.80
2017-10-02T15:26:11.990Z,17.80
2017-10-02T15:28:39.480Z,17.80
2017-10-02T15:31:07.349Z,17.80
2017-10-02T15:33:34.916Z,17.80
2017-10-02T15:36:03.043Z,17.90
2017-10-02T15:38:30.898Z,17.90
2017-10-02T15:40:58.523Z,17.90
2017-10-02T15:43:26.052Z,17.90
2017-10-02T15:45:53.455Z,17.90
2017-10-02T15:48:21.367Z,17.90
2017-10-02T15:50:48.870Z,17.90
2017-10-02T15:53:16.302Z,17.90
2017-10-02T15:55:43.795Z,17.90
2017-10-02T15:58:11.248Z,17.90
2017-10-02T16:00:39.071Z,17.90
2017-10-02T16:03:06.579Z,17.90
2017-10-02T16:05:34.003Z,17.90
2017-10-02T16:08:01.456Z,17.90
2017-10-02T16:10:28.995Z,17.90
2017-10-02T16:12:56.880Z,17.90
2017-10-02T16:15:24.840Z,17.90
2017-10-02T16:17:52.310Z,17.90
2017-10-02T16:20:20.149Z,17.90
2017-10-02T16:22:47.733Z,17.90
2017-10-02T16:25:15.625Z,17.90
2017-10-02T16:27:43.093Z,17.90
2017-10-02T16:30:10.595Z,17.80
2017-10-02T16:32:38.077Z,17.80
2017-10-02T16:35:05.628Z,17.90
2017-10-02T16:37:33.076Z,17.90
2017-10-02T16:40:00.553Z,17.90
2017-10-02T16:42:28.218Z,17.90
2017-10-02T16:44:55.715Z,17.80
2017-10-02T16:47:23.142Z,17.80
2017-10-02T16:49:50.645Z,17.80
2017-10-02T16:52:18.498Z,17.80
2017-10-02T16:54:45.935Z,17.80
2017-10-02T16:57:13.455Z,17.80
2017-10-02T16:59:40.906Z,17.80
2017-10-02T17:02:10.350Z,17.70
2017-10-02T17:04:37.826Z,17.70
2017-10-02T17:07:05.359Z,17.70
2017-10-02T17:09:32.799Z,17.70
2017-10-02T17:12:00.649Z,17.60
2017-10-02T17:14:28.078Z,17.60
2017-10-02T17:16:55.499Z,17.60
2017-10-02T17:19:22.943Z,17.60
2017-10-02T17:21:50.763Z,17.60
2017-10-02T17:24:18.324Z,17.60
2017-10-02T17:26:45.851Z,17.60
2017-10-02T17:29:13.751Z,17.50
2017-10-02T17:31:41.310Z,17.50
2017-10-02T17:34:08.719Z,17.50
2017-10-02T17:36:36.343Z,17.40
2017-10-02T17:39:03.792Z,17.40
2017-10-02T17:41:31.211Z,17.40
2017-10-02T17:43:58.970Z,17.40
2017-10-02T17:46:26.393Z,17.40
2017-10-02T17:48:53.815Z,17.40
2017-10-02T17:51:21.733Z,17.40
2017-10-02T17:53:49.279Z,17.40
2017-10-02T17:56:16.698Z,17.30
2017-10-02T17:58:44.135Z,17.30
2017-10-02T18:01:11.559Z,17.30
2017-10-02T18:03:38.975Z,17.30
2017-10-02T18:06:07.382Z,17.30
2017-10-02T18:08:35.194Z,17.20
2017-10-02T18:11:02.625Z,17.20
2017-10-02T18:13:30.558Z,17.20
2017-10-02T18:15:57.980Z,17.20
2017-10-02T18:21:17.309Z,17.20
2017-10-02T18:23:44.731Z,17.20
2017-10-02T18:26:12.154Z,17.10
2017-10-02T18:28:40.502Z,17.10
2017-10-02T18:31:07.920Z,17.10
2017-10-02T18:33:35.527Z,17.10
2017-10-02T18:36:03.054Z,17.10
2017-10-02T18:38:30.478Z,17.10
2017-10-02T18:40:58.310Z,17.00
2017-10-02T18:43:25.753Z,17.00
2017-10-02T18:45:53.541Z,17.00
2017-10-02T18:48:20.976Z,17.00
2017-10-02T18:50:48.650Z,17.00
2017-10-02T18:53:16.084Z,16.90
2017-10-02T18:55:43.516Z,17.00
2017-10-02T18:58:10.955Z,16.90
2017-10-02T19:00:38.388Z,17.00
2017-10-02T19:03:05.853Z,17.00
2017-10-02T19:05:33.291Z,16.90
2017-10-02T19:08:00.778Z,16.90
2017-10-02T19:10:28.253Z,16.90
2017-10-02T19:12:55.675Z,16.90
2017-10-02T19:15:23.116Z,16.80
2017-10-02T19:17:50.640Z,16.90
2017-10-02T19:20:18.105Z,16.80
2017-10-02T19:22:45.566Z,16.80
2017-10-02T19:25:12.997Z,16.90
2017-10-02T19:27:40.481Z,16.90
2017-10-02T19:30:07.942Z,16.90
2017-10-02T19:32:35.360Z,16.90
2017-10-02T19:35:03.187Z,16.90
2017-10-02T19:37:31.661Z,16.90
2017-10-02T19:39:59.157Z,16.90
2017-10-02T19:42:26.593Z,16.90
2017-10-02T19:44:54.239Z,16.90
2017-10-02T19:47:21.666Z,16.90
2017-10-02T19:49:49.500Z,16.90
2017-10-02T19:52:17.794Z,16.90
2017-10-02T19:54:45.235Z,16.90
2017-10-02T19:57:12.665Z,16.80
2017-10-02T19:59:40.110Z,16.90
2017-10-02T20:02:07.918Z,16.80
2017-10-02T20:04:35.371Z,16.80
2017-10-02T20:07:02.820Z,16.80
2017-10-02T20:09:30.250Z,16.80
2017-10-02T20:11:57.687Z,16.80
2017-10-02T20:14:25.130Z,16.80
2017-10-02T20:16:52.576Z,16.80
2017-10-02T20:19:20.047Z,16.80
2017-10-02T20:21:47.498Z,16.80
2017-10-02T20:24:15.204Z,16.80
2017-10-02T20:26:42.619Z,16.80
2017-10-02T20:29:10.062Z,16.80
2017-10-02T20:31:37.885Z,16.80
2017-10-02T20:34:05.314Z,16.80
2017-10-02T20:36:32.805Z,16.80
2017-10-02T20:39:00.242Z,16.70
2017-10-02T20:41:27.766Z,16.80
2017-10-02T20:43:55.221Z,16.70
2017-10-02T20:46:22.635Z,16.80
2017-10-02T20:48:50.225Z,16.80
2017-10-02T20:51:17.699Z,16.80
2017-10-02T20:53:45.120Z,16.70
2017-10-02T20:56:12.614Z,16.70
2017-10-02T20:58:40.200Z,16.70
2017-10-02T21:01:07.837Z,16.70
2017-10-02T21:03:35.845Z,16.70
2017-10-02T21:06:03.282Z,16.70
2017-10-02T21:08:30.699Z,16.70
2017-10-02T21:10:58.323Z,16.70
2017-10-02T21:13:25.855Z,16.60
2017-10-02T21:15:53.285Z,16.70
2017-10-02T21:18:20.729Z,16.70
2017-10-02T21:20:48.549Z,16.70
2017-10-02T21:23:16.010Z,16.70
2017-10-02T21:25:43.464Z,16.60
2017-10-02T21:28:10.887Z,16.60
2017-10-02T21:30:38.715Z,16.60
2017-10-02T21:33:06.982Z,16.60
2017-10-02T21:35:34.399Z,16.60
2017-10-02T21:38:02.225Z,16.60
2017-10-02T21:40:29.681Z,16.60
2017-10-02T21:42:57.195Z,16.60
2017-10-02T21:45:25.673Z,16.60
2017-10-02T21:47:53.487Z,16.50
2017-10-02T21:50:21.127Z,16.60
2017-10-02T21:52:48.611Z,16.50
2017-10-02T21:55:16.026Z,16.50
2017-10-02T21:57:43.491Z,16.50
2017-10-02T22:00:11.555Z,16.50
2017-10-02T22:02:38.978Z,16.50
2017-10-02T22:05:06.434Z,16.40
2017-10-02T22:07:33.888Z,16.40
2017-10-02T22:10:01.314Z,16.40
2017-10-02T22:12:29.181Z,16.40
2017-10-02T22:14:56.695Z,16.40
2017-10-02T22:17:24.126Z,16.30
2017-10-02T22:19:51.997Z,16.30
2017-10-02T22:22:19.421Z,16.30
2017-10-02T22:24:47.055Z,16.20
2017-10-02T22:27:14.858Z,16.20
2017-10-02T22:29:42.291Z,16.20
2017-10-02T22:32:09.738Z,16.20
2017-10-02T22:34:37.195Z,16.20
2017-10-02T22:37:04.626Z,16.30
2017-10-02T22:39:32.440Z,16.30
2017-10-02T22:41:59.908Z,16.30
2017-10-02T22:44:27.503Z,16.20
2017-10-02T22:46:54.928Z,16.20
2017-10-02T22:49:22.411Z,16.20
2017-10-02T22:51:49.849Z,16.20
2017-10-02T22:54:17.264Z,16.20
2017-10-02T22:56:44.717Z,16.10
2017-10-02T22:59:12.146Z,16.10
2017-10-02T23:01:39.624Z,16.10
2017-10-02T23:04:07.221Z,16.00
2017-10-02T23:06:35.079Z,15.90
2017-10-02T23:09:02.497Z,15.90
2017-10-02T23:11:30.009Z,15.80
2017-10-02T23:13:57.621Z,15.70
2017-10-02T23:16:25.051Z,15.50
2017-10-02T23:18:52.612Z,15.40
2017-10-02T23:21:20.053Z,15.30
2017-10-02T23:23:47.503Z,15.10
2017-10-02T23:26:15.007Z,15.10
2017-10-02T23:28:42.953Z,14.80
2017-10-02T23:31:10.500Z,14.80
2017-10-02T23:33:37.986Z,14.60
2017-10-02T23:36:05.466Z,14.40
2017-10-02T23:38:33.524Z,14.40
2017-10-02T23:41:02.208Z,14.40
2017-10-02T23:43:29.707Z,14.20
2017-10-02T23:45:57.244Z,14.10
2017-10-02T23:48:24.735Z,14.00
2017-10-02T23:50:52.653Z,14.10
2017-10-02T23:53:20.155Z,14.10
2017-10-02T23:55:48.062Z,14.10
2017-10-02T23:58:15.564Z,14.10
